Главная страница
METAR-TAF:

METAR-TAF

Аэропорты :

Каструп

Копенгаген, Дания

широта: 55-37N, долгота: 012-39E, высота над уровнем моря: 5 м

Текущие метеонаблюдения

Эта сводка был подготовлена 29 минут назад, в 02:20 UTC
Ветер 9 Узел от западно-северо-западный
Температура 4°C
Влажность 87%
Давление 1027 hPa
Видимость 10 км и более
Нет облачности ниже 1500 м, и нет кучево-дождевой облачности

METAR: EKCH 240220Z 29009KT CAVOK 04/02 Q1027 NOSIG

Время: 03:49 (02:49 UTC)

Прогноз

Эта сводка был подготовлена 3 часа и 49 минут назад, в 23:00 UTC
Прогноз действительный с 24-го 00 UTC до 24-го 24 UTC
Ветер 10 Узел от западный
Видимость 10 км и более
Отдельные облака на высоте 2000 фута
изменения
С 24-го 22 UTC до 24-го 24 UTC
Видимость: 4000 м
Рассеянная облачность на высоте 800 фута
дождь

TAF: EKCH 232300Z 2400/2424 28010KT 9999 SCT020 BECMG 2422/2424 4000 RA BKN008

Метеонаблюдения и прогнозы для более 4000 аэропортов (сводки METAR и TAF).

Имеющиеся станции представлены на карте желтыми и красными точками.

Чтобы увидеть название станции, наведите на нее мышь.

Затем щелкните, чтобы увидеть метеонаблюдения и метеопрогнозы.

Управление картой: чтобы увеличить масштаб, щелкните зеленые кнопки с черным крестиком; чтобы уменьшить масштаб, щелкните зеленую кнопку с тире; для просмотра соседних карт щелкайте зеленые стрелки.


METAR-TAF: